Aviation Digital Data Service (ADDS)

Output produced by METARs form (1016 UTC 19 November 2018)
found at http://www.aviationweather.gov/metar/data/
 
RJFM 191000Z 29004KT 9999 FEW020 SCT050 13/13 Q1018
TAF RJFM 190508Z 1906/2012 31007KT 9999 FEW030 SCT045 
     BECMG 2000/2003 05006KT 
     BECMG 2009/2012 28006KT